KMWO/MWO METAR and TAF weather

Enter ICAO airport designator
Station Type Date Time Source
KMWO METAR 2020/10/29 16:35 UTC NOAA

KMWO 291635Z AUTO 07012KT 10SM -RA OVC011 08/07 A2969 RMK AO2 P0001 T00820075


Station Type Date Time Source
KMWO Decoded METAR 2020/10/29 16:35 UTC NOAA

Station name not available
Oct 29, 2020 - 12:35 PM EDT / 2020.10.29 1635 UTC
Wind: from the ENE (070 degrees) at 14 MPH (12 KT):0
Visibility: 10 mile(s):0
Sky conditions: overcast
Weather: light rain
Precipitation last hour: 0.01 inches
Temperature: 46.8 F (8.2 C)
Dew Point: 45.5 F (7.5 C)
Relative Humidity: 95%
Pressure (altimeter): 29.69 in. Hg (1005 hPa)
ob: KMWO 291635Z AUTO 07012KT 10SM -RA OVC011 08/07 A2969 RMK AO2 P0001 T00820075
cycle: 16

Station Type Date Time Source
KMWO TAF UTC NOAA

Error!

Example: see airport list